Twin Springs, Nevada Weather observations

Data are for observation ending at time listed.
 Day   Time    Ave.   Ave.  Ave.  Vector   Max.   Stn.    Total    Solar   Ave.  
  of    of     Air    Rel.  Wind   Wind    Wind   Baro.  Precip.   Rad.    Soil  
Year   Day     Temp.  Hum.  Speed  Dir.    Gust   Pres.                    Temp. 
2017   (PST)    F      %     mph   deg.    mph     mb.     in.     W/m2     F   
------------------------------------------------------------------------------
  18   19:00   39.0    37    8.7   125     17.0    839     0.00       0    34.9
  18   20:00   38.9    44    9.2   170     19.1    840     0.00       0    34.8
  18   21:00   34.7    75    5.0   194     14.7    840     0.00       0    34.7
  18   22:00   31.9    92    0.6    83      6.7    840     0.00       0    34.6
  18   23:00   31.6    95    7.9   114     13.3    839     0.00       0    34.3
  19    0:00   31.7    96    8.6   120     14.8    838     0.00       0    34.1
  19    1:00   32.2    95    7.5   129     14.0    838     0.00       0    34.0
  19    2:00   32.9    92    9.6   135     16.1    837     0.00       0    33.9
  19    3:00   32.4    94    8.1   124     13.3    837     0.00       0    33.8
  19    4:00   32.1    95    6.7   116     13.1    837     0.00       0    33.8
  19    5:00   31.9    96    6.4   112     11.6    836     0.00       0    33.7
  19    6:00   32.0    96    7.1   106     12.9    836     0.00       0    33.7
  19    7:00   32.1    96    4.4   125     11.0    836     0.00       0    33.7
  19    8:00   32.2    95    1.1   160      6.9    836     0.00      15    33.7
  19    9:00   33.1    93    1.5   178      8.8    837     0.00      53    33.6
  19   10:00   33.3    93    5.9   137     10.8    837     0.00     138    33.6
  19   11:00   33.3    94    4.8   161      8.0    836     0.09     172    33.7
  19   12:00   35.6    91    3.9   152      7.2    836     0.01     460    33.6
  19   13:00   37.0    88    3.8   160      8.7    835     0.00     326    34.1
  19   14:00   38.0    88    5.7   134     11.4    834     0.00     371    35.7
  19   15:00   41.4    74    5.5   180     10.9    834     0.00     384    37.3
  19   16:00   43.8    53    5.5   249     13.2    834     0.00     197    38.8
  19   17:00   37.7    82    4.9   170      8.7    834     0.00      45    38.9
  19   18:00   33.2    92    4.9   154      9.4    834     0.00       0    38.3

Return to Twin Springs, Nevada graphs page.


Western Regional Climate Center,wrcc@dri.edu